Overview Statistics Trail Chart Weather Telemetry Raw packets
 

This is the latest recevied weather packets stored in our database for station/object KF6RAL-6. If no packets are shown the sender has not sent any weather packets the latest 10 day(s).

<< 33 34 35 36 37 38 39 >>
Time Temp. Humidity Pressure Rain* Wind** Luminosity Snow
1788348586 25° C 31% 1010.9 hPa 0 mm - - -
1788348164 25° C 32% 1011 hPa 0 mm - - -
1788347743 23.89° C 35% 1011 hPa 0 mm - - -
1788347322 23.89° C 35% 1010.8 hPa 0 mm - - -
1788346902 25.56° C 31% 1010.5 hPa 0 mm - - -
1788346480 25° C 32% 1010.9 hPa 0 mm - - -
1788346059 24.44° C 33% 1011.2 hPa 0 mm - - -
1788345638 24.44° C 34% 1010.8 hPa 0 mm - - -
1788345218 24.44° C 35% 1010.7 hPa 0 mm - - -
1788344796 25.56° C 30% 1010.7 hPa 0 mm - - -
1788344375 25.56° C 30% 1010.6 hPa 0 mm - - -
1788343955 25.56° C 30% 1011.1 hPa 0 mm - - -
1788343591 26.11° C 29% 1011.4 hPa 0 mm - - -
1788343533 26.11° C 29% 1011.4 hPa 0 mm - - -
1788343112 26.11° C 28% 1010.7 hPa 0 mm - - -
1788342692 25.56° C 28% 1010.7 hPa 0 mm - - -
1788342270 25.56° C 29% 1010.8 hPa 0 mm - - -
1788341849 25.56° C 27% 1010.9 hPa 0 mm - - -
1788341428 26.11° C 26% 1011.1 hPa 0 mm - - -
1788341007 26.11° C 27% 1010.9 hPa 0 mm - - -
1788340586 26.11° C 27% 1010.9 hPa 0 mm - - -
1788340165 26.11° C 27% 1011.2 hPa 0 mm - - -
1788339775 25.56° C 29% 1010.9 hPa 0 mm - - -
1788339744 25.56° C 29% 1010.9 hPa 0 mm - - -
1788339323 26.11° C 30% 1011.1 hPa 0 mm - - -

* Rain latest hour (hover to see other rain measurements)
** Current wind speed in m/s (hover to see current wind gust speed)